Time;durP1;ratioP1;P1;durP2;ratioP2;P2;SDS_P1;SDS_P2;PMS_P1;PMS_P2;Temp;Humidity;BMP_temperature;BMP_pressure;BME280_temperature;BME280_humidity;BME280_pressure;Samples;Min_cycle;Max_cycle;Signal;HPM_P1;HPM_P2
2021/09/14 00:00:44;;;;;;;;;;;25.20;55.40;;;;;;1584034;74;790;-60
2021/09/14 00:02:47;;;;;;;;;;;25.20;55.50;;;;;;1581528;74;862;-62
2021/09/14 00:04:49;;;;;;;;;;;25.20;55.40;;;;;;1558610;74;1083;-61
2021/09/14 00:06:51;;;;;;;;;;;25.20;55.40;;;;;;1590540;73;820;-62
2021/09/14 00:08:53;;;;;;;;;;;25.20;55.50;;;;;;1587296;73;680;-60
2021/09/14 00:10:55;;;;;;;;;;;25.20;55.40;;;;;;1574851;74;796;-59
2021/09/14 00:12:57;;;;;;;;;;;25.20;55.50;;;;;;1566344;74;1934;-61
2021/09/14 00:14:59;;;;;;;;;;;25.20;55.50;;;;;;1586294;73;1073;-61
2021/09/14 00:17:01;;;;;;;;;;;25.20;55.50;;;;;;1584091;74;797;-60
2021/09/14 00:19:03;;;;;;;;;;;25.20;55.40;;;;;;1583749;74;833;-61
2021/09/14 00:21:04;;;;;;;;;;;25.20;55.40;;;;;;1583588;74;826;-61
2021/09/14 00:23:06;;;;;;;;;;;25.20;55.30;;;;;;1574808;74;1135;-61
2021/09/14 00:25:09;;;;;;;;;;;25.20;55.30;;;;;;1580818;74;868;-61
2021/09/14 00:27:11;;;;;;;;;;;25.20;55.30;;;;;;1584202;74;663;-61
2021/09/14 00:29:13;;;;;;;;;;;25.20;55.40;;;;;;1573105;75;752;-62
2021/09/14 00:31:14;;;;;;;;;;;25.20;55.40;;;;;;1583905;74;701;-62
2021/09/14 00:33:19;;;;;;;;;;;25.20;55.50;;;;;;1582120;74;1941;-60
2021/09/14 00:35:20;;;;;;;;;;;25.20;55.50;;;;;;1563757;75;1718;-61
2021/09/14 00:37:22;;;;;;;;;;;25.30;55.40;;;;;;1594749;73;777;-61
2021/09/14 00:39:24;;;;;;;;;;;25.20;55.50;;;;;;1594589;73;721;-61
2021/09/14 00:41:25;;;;;;;;;;;25.20;55.50;;;;;;1587720;73;765;-63
2021/09/14 00:43:27;;;;;;;;;;;25.20;55.50;;;;;;1596243;73;1147;-60
2021/09/14 00:45:29;;;;;;;;;;;25.20;55.50;;;;;;1568642;74;847;-61
2021/09/14 00:47:31;;;;;;;;;;;25.20;55.50;;;;;;1580557;74;831;-61
2021/09/14 00:49:33;;;;;;;;;;;25.20;55.50;;;;;;1585637;74;772;-62
2021/09/14 00:51:35;;;;;;;;;;;25.20;55.50;;;;;;1599074;73;771;-61
2021/09/14 00:53:37;;;;;;;;;;;25.20;55.40;;;;;;1588364;73;1963;-61
2021/09/14 00:55:38;;;;;;;;;;;25.20;55.40;;;;;;1554810;76;660;-61
2021/09/14 00:57:40;;;;;;;;;;;25.20;55.40;;;;;;1592874;73;777;-61
2021/09/14 00:59:42;;;;;;;;;;;25.20;55.30;;;;;;1568680;73;642;-61
2021/09/14 01:01:44;;;;;;;;;;;25.20;55.20;;;;;;1585767;73;663;-61
2021/09/14 01:03:47;;;;;;;;;;;25.20;55.20;;;;;;1576109;74;1136;-62
2021/09/14 01:05:49;;;;;;;;;;;25.20;55.30;;;;;;1574308;74;726;-60
2021/09/14 01:07:50;;;;;;;;;;;25.20;55.40;;;;;;1582896;74;802;-60
2021/09/14 01:09:53;;;;;;;;;;;25.20;55.50;;;;;;1576553;74;786;-59
2021/09/14 01:11:54;;;;;;;;;;;25.20;55.50;;;;;;1582974;74;754;-59
2021/09/14 01:14:00;;;;;;;;;;;25.20;55.50;;;;;;1583617;74;1955;-60
2021/09/14 01:16:06;;;;;;;;;;;25.20;55.60;;;;;;1568290;73;224161;-66
2021/09/14 01:18:08;;;;;;;;;;;25.10;55.60;;;;;;1552287;75;716;-63
2021/09/14 01:20:10;;;;;;;;;;;25.20;55.60;;;;;;1552045;75;818;-66
2021/09/14 01:22:13;;;;;;;;;;;25.20;55.50;;;;;;1553154;75;891;-67
2021/09/14 01:24:15;;;;;;;;;;;25.20;55.60;;;;;;1553843;75;741;-65
2021/09/14 01:26:18;;;;;;;;;;;25.20;55.50;;;;;;1547538;75;1205;-66
2021/09/14 01:28:20;;;;;;;;;;;25.20;55.60;;;;;;1529183;76;797;-67
2021/09/14 01:30:21;;;;;;;;;;;25.20;55.60;;;;;;1528638;76;838;-73
2021/09/14 01:32:23;;;;;;;;;;;25.20;55.70;;;;;;1530045;76;784;-74
2021/09/14 01:34:25;;;;;;;;;;;25.20;55.60;;;;;;1529336;76;1936;-70
2021/09/14 01:36:27;;;;;;;;;;;25.30;55.60;;;;;;1529366;76;1176;-70
2021/09/14 01:38:29;;;;;;;;;;;25.20;55.50;;;;;;1529293;76;686;-70
2021/09/14 01:40:31;;;;;;;;;;;25.30;55.60;;;;;;1529952;76;774;-69
2021/09/14 01:42:33;;;;;;;;;;;25.20;55.60;;;;;;1529961;76;729;-68
2021/09/14 01:44:35;;;;;;;;;;;25.20;55.70;;;;;;1528823;76;815;-70
2021/09/14 01:46:37;;;;;;;;;;;25.20;55.80;;;;;;1513181;77;1071;-68
2021/09/14 01:48:38;;;;;;;;;;;25.20;55.80;;;;;;1533581;77;790;-66
2021/09/14 01:50:41;;;;;;;;;;;25.20;56.00;;;;;;1540354;76;726;-68
2021/09/14 01:52:44;;;;;;;;;;;25.20;56.10;;;;;;1541948;76;816;-69
2021/09/14 01:54:49;;;;;;;;;;;25.30;56.00;;;;;;1511911;77;1925;-70
2021/09/14 01:56:50;;;;;;;;;;;25.30;56.20;;;;;;1528853;76;1658;-69
2021/09/14 01:58:52;;;;;;;;;;;25.20;56.30;;;;;;1540867;76;712;-70
2021/09/14 02:05:22;;;;;;;;;;;25.20;56.50;;;;;;1526351;76;890;-71
2021/09/14 02:39:13;;;;;;;;;;;25.10;56.50;;;;;;1549140;76;644;-71
2021/09/14 02:59:12;;;;;;;;;;;25.10;56.30;;;;;;1534069;76;818;-71
2021/09/14 03:01:14;;;;;;;;;;;25.10;56.40;;;;;;1535763;76;727;-70
2021/09/14 03:03:16;;;;;;;;;;;25.10;56.40;;;;;;1522053;76;718;-71
2021/09/14 03:05:18;;;;;;;;;;;25.10;56.40;;;;;;1534071;76;738;-74
2021/09/14 03:07:20;;;;;;;;;;;25.10;56.30;;;;;;1527728;76;1121;-71
2021/09/14 03:09:22;;;;;;;;;;;25.10;56.30;;;;;;1519072;76;775;-72
2021/09/14 03:11:24;;;;;;;;;;;25.10;56.30;;;;;;1505195;76;715;-73
2021/09/14 03:13:27;;;;;;;;;;;25.10;56.30;;;;;;1508152;76;725;-72
2021/09/14 03:15:29;;;;;;;;;;;25.10;56.40;;;;;;1510863;76;1913;-70
2021/09/14 03:17:30;;;;;;;;;;;25.10;56.40;;;;;;1510489;76;1100;-71
2021/09/14 03:19:32;;;;;;;;;;;25.20;56.40;;;;;;1511210;76;786;-71
2021/09/14 03:21:34;;;;;;;;;;;25.10;56.50;;;;;;1522132;76;1070;-71
2021/09/14 03:23:36;;;;;;;;;;;25.10;56.40;;;;;;1511441;76;779;-70
2021/09/14 03:25:38;;;;;;;;;;;25.20;56.40;;;;;;1510958;76;712;-72
2021/09/14 03:27:40;;;;;;;;;;;25.20;56.30;;;;;;1519512;76;1126;-72
2021/09/14 03:29:42;;;;;;;;;;;25.10;56.30;;;;;;1513108;76;691;-72
2021/09/14 03:31:43;;;;;;;;;;;25.20;56.30;;;;;;1510408;76;682;-71
2021/09/14 03:33:46;;;;;;;;;;;25.10;56.20;;;;;;1519966;76;736;-73
2021/09/14 03:35:48;;;;;;;;;;;25.20;56.10;;;;;;1518955;75;1907;-71
2021/09/14 03:37:50;;;;;;;;;;;25.20;56.20;;;;;;1531893;76;601;-71
2021/09/14 03:39:52;;;;;;;;;;;25.10;56.20;;;;;;1521333;76;756;-73
2021/09/14 03:41:54;;;;;;;;;;;25.10;56.10;;;;;;1534121;76;730;-72
2021/09/14 03:43:55;;;;;;;;;;;25.10;56.00;;;;;;1537969;76;762;-73
2021/09/14 03:45:57;;;;;;;;;;;25.10;56.00;;;;;;1528696;76;1135;-72
2021/09/14 03:47:59;;;;;;;;;;;25.20;55.90;;;;;;1534568;76;743;-72
2021/09/14 03:50:01;;;;;;;;;;;25.20;55.90;;;;;;1526404;76;732;-72
2021/09/14 03:52:03;;;;;;;;;;;25.10;55.80;;;;;;1528598;76;680;-72
2021/09/14 03:54:05;;;;;;;;;;;25.10;55.80;;;;;;1534498;76;764;-72
2021/09/14 03:56:07;;;;;;;;;;;25.10;55.80;;;;;;1520437;76;1945;-74
2021/09/14 03:58:09;;;;;;;;;;;25.20;55.70;;;;;;1533286;76;744;-69
2021/09/14 04:00:11;;;;;;;;;;;25.20;55.70;;;;;;1537100;76;731;-72
2021/09/14 04:02:24;;;;;;;;;;;25.20;55.70;;;;;;1529810;76;766;-73
2021/09/14 04:05:05;;;;;;;;;;;25.20;55.70;;;;;;1529408;76;1567;-69
2021/09/14 04:06:38;;;;;;;;;;;25.20;55.70;;;;;;1507763;76;1401;-72
2021/09/14 04:10:46;;;;;;;;;;;25.20;55.70;;;;;;1506587;78;1658;-72
2021/09/14 04:12:48;;;;;;;;;;;25.10;55.60;;;;;;1510464;76;853;-73
2021/09/14 04:14:50;;;;;;;;;;;25.20;55.60;;;;;;1511028;76;1928;-71
2021/09/14 04:16:52;;;;;;;;;;;25.20;55.70;;;;;;1518481;76;1133;-67
2021/09/14 04:18:53;;;;;;;;;;;25.20;55.70;;;;;;1514728;76;794;-72
2021/09/14 04:20:55;;;;;;;;;;;25.10;55.70;;;;;;1514278;76;722;-72
2021/09/14 04:22:57;;;;;;;;;;;25.10;55.70;;;;;;1513378;76;728;-72
2021/09/14 04:24:59;;;;;;;;;;;25.20;55.70;;;;;;1520518;76;618;-72
2021/09/14 04:27:01;;;;;;;;;;;25.10;55.70;;;;;;1522997;76;1128;-73
2021/09/14 04:29:03;;;;;;;;;;;25.10;55.70;;;;;;1518026;76;754;-72
2021/09/14 04:31:05;;;;;;;;;;;25.10;55.70;;;;;;1536959;76;648;-74
2021/09/14 04:33:08;;;;;;;;;;;25.10;55.50;;;;;;1520863;76;812;-72
2021/09/14 04:35:10;;;;;;;;;;;25.10;55.60;;;;;;1547702;76;1933;-72
2021/09/14 04:37:12;;;;;;;;;;;25.10;55.70;;;;;;1536386;75;1179;-72
2021/09/14 04:39:14;;;;;;;;;;;25.10;55.60;;;;;;1547700;76;944;-72
2021/09/14 04:41:16;;;;;;;;;;;25.10;55.60;;;;;;1548298;76;779;-74
2021/09/14 04:43:18;;;;;;;;;;;25.10;55.50;;;;;;1540248;76;758;-70
2021/09/14 04:45:20;;;;;;;;;;;25.10;55.50;;;;;;1539669;76;767;-71
2021/09/14 04:47:22;;;;;;;;;;;25.10;55.60;;;;;;1542200;76;1148;-69
2021/09/14 04:49:24;;;;;;;;;;;25.10;55.50;;;;;;1552242;76;794;-70
2021/09/14 04:51:25;;;;;;;;;;;25.10;55.50;;;;;;1540151;76;769;-70
2021/09/14 04:53:27;;;;;;;;;;;25.10;55.50;;;;;;1548246;76;771;-70
2021/09/14 04:55:29;;;;;;;;;;;25.10;55.50;;;;;;1533949;76;1964;-70
2021/09/14 04:57:31;;;;;;;;;;;25.10;55.50;;;;;;1543717;76;1113;-71
2021/09/14 04:59:33;;;;;;;;;;;25.10;55.40;;;;;;1549055;76;872;-70
2021/09/14 05:01:35;;;;;;;;;;;25.10;55.50;;;;;;1517801;77;1126;-70
2021/09/14 05:03:37;;;;;;;;;;;25.10;55.50;;;;;;1535042;76;755;-70
2021/09/14 05:05:38;;;;;;;;;;;25.10;55.40;;;;;;1546861;76;723;-70
2021/09/14 05:07:40;;;;;;;;;;;25.10;55.50;;;;;;1535435;76;1137;-70
2021/09/14 05:09:42;;;;;;;;;;;24.90;55.40;;;;;;1537524;76;802;-70
2021/09/14 05:11:44;;;;;;;;;;;25.10;55.40;;;;;;1522115;77;849;-73
2021/09/14 05:13:47;;;;;;;;;;;25.10;55.50;;;;;;1518307;76;652;-73
2021/09/14 05:15:49;;;;;;;;;;;25.00;55.40;;;;;;1521197;76;1899;-72
2021/09/14 05:17:50;;;;;;;;;;;25.00;55.40;;;;;;1524822;76;722;-71
2021/09/14 05:19:53;;;;;;;;;;;25.10;55.50;;;;;;1534474;76;776;-72
2021/09/14 05:21:55;;;;;;;;;;;25.00;55.50;;;;;;1532860;76;730;-70
2021/09/14 05:23:56;;;;;;;;;;;25.10;55.40;;;;;;1533806;76;747;-72
2021/09/14 05:25:59;;;;;;;;;;;25.10;55.40;;;;;;1535843;76;1155;-72
2021/09/14 05:28:01;;;;;;;;;;;25.10;55.40;;;;;;1531475;76;736;-72
2021/09/14 05:30:04;;;;;;;;;;;25.10;55.40;;;;;;1535505;77;738;-73
2021/09/14 05:32:06;;;;;;;;;;;25.10;55.40;;;;;;1531877;76;718;-73
2021/09/14 05:34:08;;;;;;;;;;;25.10;55.40;;;;;;1535640;76;864;-71
2021/09/14 05:36:09;;;;;;;;;;;25.10;55.40;;;;;;1536972;76;1948;-71
2021/09/14 05:38:12;;;;;;;;;;;25.10;55.40;;;;;;1535526;76;730;-71
2021/09/14 05:40:14;;;;;;;;;;;25.10;55.50;;;;;;1536167;76;609;-71
2021/09/14 05:42:16;;;;;;;;;;;25.10;55.30;;;;;;1532387;76;706;-70
2021/09/14 05:44:17;;;;;;;;;;;25.10;55.40;;;;;;1543717;76;823;-72
2021/09/14 05:46:20;;;;;;;;;;;25.10;55.40;;;;;;1542187;76;1149;-70
2021/09/14 05:48:22;;;;;;;;;;;25.00;55.50;;;;;;1534740;76;747;-72
2021/09/14 05:50:23;;;;;;;;;;;25.10;55.50;;;;;;1538791;76;799;-70
2021/09/14 05:52:25;;;;;;;;;;;25.10;55.50;;;;;;1537410;76;812;-70
2021/09/14 05:54:27;;;;;;;;;;;25.10;55.40;;;;;;1538475;76;939;-71
2021/09/14 05:56:34;;;;;;;;;;;25.10;55.40;;;;;;1531894;76;1925;-70
2021/09/14 05:58:33;;;;;;;;;;;25.10;55.50;;;;;;1542501;76;1455;-73
2021/09/14 06:00:35;;;;;;;;;;;25.10;55.50;;;;;;1546982;76;609;-72
2021/09/14 06:02:37;;;;;;;;;;;25.10;55.40;;;;;;1540452;76;797;-74
2021/09/14 06:04:39;;;;;;;;;;;25.10;55.50;;;;;;1541412;76;840;-73
2021/09/14 06:06:41;;;;;;;;;;;25.10;55.30;;;;;;1538376;76;1133;-74
2021/09/14 06:08:43;;;;;;;;;;;25.10;54.90;;;;;;1538942;76;862;-74
2021/09/14 06:10:44;;;;;;;;;;;25.10;54.70;;;;;;1539690;76;729;-72
2021/09/14 06:12:46;;;;;;;;;;;25.10;54.60;;;;;;1529408;76;756;-73
2021/09/14 06:14:48;;;;;;;;;;;25.10;54.50;;;;;;1540932;76;783;-71
2021/09/14 06:16:50;;;;;;;;;;;25.10;54.40;;;;;;1537985;76;1947;-71
2021/09/14 06:18:52;;;;;;;;;;;25.10;54.30;;;;;;1529049;76;799;-73
2021/09/14 06:20:54;;;;;;;;;;;25.10;54.10;;;;;;1538731;76;710;-75
2021/09/14 06:22:56;;;;;;;;;;;25.00;53.90;;;;;;1537106;76;656;-71
2021/09/14 06:24:58;;;;;;;;;;;25.10;53.70;;;;;;1527686;76;774;-71
2021/09/14 06:27:00;;;;;;;;;;;25.00;53.70;;;;;;1529903;75;1153;-70
2021/09/14 06:29:02;;;;;;;;;;;25.00;53.70;;;;;;1527861;76;821;-71
2021/09/14 06:31:04;;;;;;;;;;;25.00;53.70;;;;;;1529271;76;807;-71
2021/09/14 06:33:05;;;;;;;;;;;24.90;53.70;;;;;;1532053;76;680;-71
2021/09/14 06:35:08;;;;;;;;;;;24.90;53.60;;;;;;1539206;76;1939;-71
2021/09/14 06:37:10;;;;;;;;;;;24.90;53.70;;;;;;1535768;75;1140;-74
2021/09/14 06:39:11;;;;;;;;;;;24.90;53.90;;;;;;1530801;76;664;-71
2021/09/14 06:41:13;;;;;;;;;;;24.90;53.90;;;;;;1525784;76;675;-66
2021/09/14 06:43:15;;;;;;;;;;;24.90;53.70;;;;;;1519353;76;666;-66
2021/09/14 06:45:17;;;;;;;;;;;24.90;53.80;;;;;;1515207;76;810;-69
2021/09/14 06:47:19;;;;;;;;;;;24.90;53.90;;;;;;1538884;76;1089;-67
2021/09/14 06:49:21;;;;;;;;;;;24.90;53.90;;;;;;1543812;76;793;-69
2021/09/14 06:51:23;;;;;;;;;;;24.90;53.90;;;;;;1528273;76;742;-70
2021/09/14 06:53:28;;;;;;;;;;;24.80;53.80;;;;;;1536538;76;788;-70
2021/09/14 06:55:28;;;;;;;;;;;24.80;53.60;;;;;;1535009;76;1935;-71
2021/09/14 06:57:30;;;;;;;;;;;24.80;53.40;;;;;;1532649;75;1130;-72
2021/09/14 06:59:32;;;;;;;;;;;24.80;53.30;;;;;;1538230;76;786;-69
2021/09/14 07:01:34;;;;;;;;;;;24.80;53.30;;;;;;1550843;76;684;-72
2021/09/14 07:03:36;;;;;;;;;;;24.80;53.30;;;;;;1539170;76;703;-69
2021/09/14 07:05:38;;;;;;;;;;;24.70;53.40;;;;;;1532142;76;826;-71
2021/09/14 07:07:40;;;;;;;;;;;24.70;53.40;;;;;;1519332;76;1082;-71
2021/09/14 07:09:42;;;;;;;;;;;24.60;53.30;;;;;;1539095;76;784;-71
2021/09/14 07:11:44;;;;;;;;;;;24.70;53.40;;;;;;1531303;76;737;-73
2021/09/14 07:13:46;;;;;;;;;;;24.70;53.50;;;;;;1530225;76;763;-71
2021/09/14 07:15:48;;;;;;;;;;;24.70;53.50;;;;;;1525019;76;1939;-69
2021/09/14 07:17:50;;;;;;;;;;;24.70;53.60;;;;;;1564791;74;2297;-70
2021/09/14 07:19:52;;;;;;;;;;;24.70;53.80;;;;;;1560075;74;598;-70
2021/09/14 07:21:54;;;;;;;;;;;24.80;53.60;;;;;;1560608;74;703;-68
2021/09/14 07:23:56;;;;;;;;;;;24.70;53.50;;;;;;1569074;74;803;-71
2021/09/14 07:25:58;;;;;;;;;;;24.70;53.70;;;;;;1557105;75;698;-70
2021/09/14 07:28:00;;;;;;;;;;;24.70;54.00;;;;;;1562871;74;1190;-71
2021/09/14 07:30:02;;;;;;;;;;;24.70;53.80;;;;;;1522907;76;666;-71
2021/09/14 07:32:04;;;;;;;;;;;24.60;53.50;;;;;;1534950;76;714;-69
2021/09/14 07:34:06;;;;;;;;;;;24.60;53.40;;;;;;1522686;76;635;-73
2021/09/14 07:36:12;;;;;;;;;;;24.60;53.30;;;;;;1526852;76;1935;-70
2021/09/14 07:38:12;;;;;;;;;;;24.60;53.20;;;;;;1518443;77;1459;-70
2021/09/14 07:40:14;;;;;;;;;;;24.60;53.10;;;;;;1528828;76;722;-71
2021/09/14 07:42:16;;;;;;;;;;;24.60;53.00;;;;;;1523701;76;698;-69
2021/09/14 07:44:17;;;;;;;;;;;24.70;53.40;;;;;;1525941;76;752;-69
2021/09/14 07:46:19;;;;;;;;;;;24.60;53.60;;;;;;1532473;76;1191;-70
2021/09/14 07:48:21;;;;;;;;;;;24.70;53.70;;;;;;1537247;77;779;-70
2021/09/14 07:50:23;;;;;;;;;;;24.80;53.70;;;;;;1532796;76;700;-68
2021/09/14 07:52:25;;;;;;;;;;;24.80;53.10;;;;;;1541714;76;694;-71
2021/09/14 07:54:27;;;;;;;;;;;24.80;53.20;;;;;;1539662;76;726;-72
2021/09/14 07:56:29;;;;;;;;;;;24.80;52.90;;;;;;1537585;76;2110;-72
2021/09/14 07:58:31;;;;;;;;;;;24.90;53.00;;;;;;1538970;76;731;-70
2021/09/14 08:00:33;;;;;;;;;;;25.00;53.10;;;;;;1541730;77;723;-70
2021/09/14 08:02:35;;;;;;;;;;;24.90;52.10;;;;;;1534708;77;704;-70
2021/09/14 08:04:37;;;;;;;;;;;25.00;52.70;;;;;;1538407;77;735;-70
2021/09/14 08:06:39;;;;;;;;;;;25.00;52.50;;;;;;1561672;74;1145;-70
2021/09/14 08:08:41;;;;;;;;;;;25.00;52.60;;;;;;1548741;74;712;-71
2021/09/14 08:10:43;;;;;;;;;;;25.10;52.70;;;;;;1552414;74;627;-71
2021/09/14 08:12:45;;;;;;;;;;;25.20;52.50;;;;;;1550438;74;728;-71
2021/09/14 08:14:46;;;;;;;;;;;25.10;52.30;;;;;;1570002;74;758;-70
2021/09/14 08:16:48;;;;;;;;;;;25.10;52.30;;;;;;1567576;74;1922;-69
2021/09/14 08:18:50;;;;;;;;;;;25.30;52.30;;;;;;1575882;74;848;-71
2021/09/14 08:20:52;;;;;;;;;;;25.20;52.10;;;;;;1571745;74;681;-70
2021/09/14 08:22:54;;;;;;;;;;;25.20;52.10;;;;;;1543508;74;726;-70
2021/09/14 08:24:56;;;;;;;;;;;25.30;52.10;;;;;;1554593;74;700;-70
2021/09/14 08:26:58;;;;;;;;;;;25.30;52.10;;;;;;1572264;74;1161;-71
2021/09/14 08:29:00;;;;;;;;;;;25.40;52.00;;;;;;1551769;74;750;-71
2021/09/14 08:31:01;;;;;;;;;;;25.40;52.00;;;;;;1551482;74;725;-70
2021/09/14 08:33:04;;;;;;;;;;;25.40;52.00;;;;;;1563187;74;653;-70
2021/09/14 08:35:06;;;;;;;;;;;25.40;51.90;;;;;;1580129;74;737;-70
2021/09/14 08:37:09;;;;;;;;;;;25.50;51.90;;;;;;1576897;74;1930;-71
2021/09/14 08:39:11;;;;;;;;;;;25.40;51.80;;;;;;1568934;74;749;-70
2021/09/14 08:41:13;;;;;;;;;;;25.30;52.10;;;;;;1566970;74;659;-70
2021/09/14 08:43:15;;;;;;;;;;;25.50;52.00;;;;;;1557131;74;745;-68
2021/09/14 08:45:17;;;;;;;;;;;25.50;51.80;;;;;;1588807;74;788;-71
2021/09/14 08:47:21;;;;;;;;;;;25.40;51.40;;;;;;1564105;74;1181;-71
2021/09/14 08:49:23;;;;;;;;;;;25.40;51.60;;;;;;1541380;76;863;-70
2021/09/14 08:51:24;;;;;;;;;;;25.40;51.80;;;;;;1541359;76;704;-71
2021/09/14 08:53:26;;;;;;;;;;;25.30;51.80;;;;;;1543279;77;828;-71
2021/09/14 08:55:28;;;;;;;;;;;25.40;51.60;;;;;;1542845;76;721;-71
2021/09/14 08:57:30;;;;;;;;;;;25.40;51.70;;;;;;1525410;77;1943;-71
2021/09/14 08:59:33;;;;;;;;;;;25.40;51.40;;;;;;1539560;76;699;-71
2021/09/14 09:01:35;;;;;;;;;;;25.40;51.40;;;;;;1569200;74;637;-71
2021/09/14 09:03:38;;;;;;;;;;;25.40;51.60;;;;;;1578293;74;760;-71
2021/09/14 09:05:40;;;;;;;;;;;25.40;51.40;;;;;;1557323;74;810;-71
2021/09/14 09:07:42;;;;;;;;;;;25.30;51.20;;;;;;1564402;74;1161;-71
2021/09/14 09:09:44;;;;;;;;;;;25.30;51.70;;;;;;1544526;76;761;-71
2021/09/14 09:11:52;;;;;;;;;;;25.30;51.40;;;;;;1553548;74;733;-70
2021/09/14 09:13:54;;;;;;;;;;;25.50;51.10;;;;;;1553788;74;702;-72
2021/09/14 09:15:56;;;;;;;;;;;25.40;50.70;;;;;;1548429;74;742;-72
2021/09/14 09:18:06;;;;;;;;;;;25.40;50.80;;;;;;1544934;74;1944;-72
2021/09/14 09:20:08;;;;;;;;;;;25.50;50.70;;;;;;1536802;76;703;-72
2021/09/14 09:22:12;;;;;;;;;;;25.50;50.70;;;;;;1535797;76;816;-71
2021/09/14 09:24:13;;;;;;;;;;;25.50;50.60;;;;;;1548540;76;2156;-72
2021/09/14 09:26:15;;;;;;;;;;;25.50;50.20;;;;;;1546786;76;1095;-69
2021/09/14 09:28:19;;;;;;;;;;;25.40;49.10;;;;;;1541279;76;680;-70
2021/09/14 09:30:22;;;;;;;;;;;25.40;50.10;;;;;;1543958;76;1070;-71
2021/09/14 09:32:24;;;;;;;;;;;25.50;49.70;;;;;;1540082;76;803;-72
2021/09/14 09:34:26;;;;;;;;;;;25.50;49.90;;;;;;1527737;77;711;-72
2021/09/14 09:36:31;;;;;;;;;;;25.50;50.00;;;;;;1539093;76;1943;-72
2021/09/14 09:38:35;;;;;;;;;;;25.50;49.20;;;;;;1540807;76;763;-72
2021/09/14 09:40:42;;;;;;;;;;;25.50;49.70;;;;;;1536096;76;1802;-72
2021/09/14 09:42:45;;;;;;;;;;;25.50;48.90;;;;;;1539197;77;1188;-71
2021/09/14 09:44:54;;;;;;;;;;;25.50;48.60;;;;;;1560102;74;1782;-72
2021/09/14 09:46:56;;;;;;;;;;;25.60;48.80;;;;;;1554436;74;1180;-71
2021/09/14 09:49:01;;;;;;;;;;;25.60;48.70;;;;;;1567576;74;776;-71
2021/09/14 09:51:03;;;;;;;;;;;25.60;48.60;;;;;;1570916;74;710;-71
2021/09/14 09:53:05;;;;;;;;;;;25.60;48.70;;;;;;1553366;74;713;-72
2021/09/14 09:55:08;;;;;;;;;;;25.70;48.60;;;;;;1545090;74;791;-71
2021/09/14 09:57:10;;;;;;;;;;;25.60;48.30;;;;;;1578365;74;1958;-71
2021/09/14 09:59:12;;;;;;;;;;;25.70;48.50;;;;;;1569621;74;658;-72
2021/09/14 10:01:15;;;;;;;;;;;25.70;48.50;;;;;;1566653;74;784;-71
2021/09/14 10:03:18;;;;;;;;;;;25.80;48.40;;;;;;1578213;74;660;-71
2021/09/14 10:05:20;;;;;;;;;;;25.70;48.40;;;;;;1554561;74;791;-77
2021/09/14 10:07:24;;;;;;;;;;;25.60;48.20;;;;;;1563302;74;1164;-70
2021/09/14 10:09:32;;;;;;;;;;;25.70;48.50;;;;;;1560158;74;1505;-72
2021/09/14 10:11:36;;;;;;;;;;;25.70;48.50;;;;;;1555827;74;725;-72
2021/09/14 10:13:42;;;;;;;;;;;25.80;48.40;;;;;;1521904;76;1628;-72
2021/09/14 10:15:42;;;;;;;;;;;25.70;48.40;;;;;;1539478;76;1148;-71
2021/09/14 10:17:53;;;;;;;;;;;25.70;47.20;;;;;;1531407;77;1945;-71
2021/09/14 10:19:55;;;;;;;;;;;25.60;47.50;;;;;;1535908;76;736;-72
2021/09/14 10:22:03;;;;;;;;;;;25.70;47.60;;;;;;1526186;77;664;-68
2021/09/14 10:24:05;;;;;;;;;;;25.60;47.60;;;;;;1566996;74;790;-72
2021/09/14 10:26:08;;;;;;;;;;;25.60;47.60;;;;;;1536484;74;576;-72
2021/09/14 10:28:13;;;;;;;;;;;25.70;47.70;;;;;;1575459;74;1108;-71
2021/09/14 10:30:17;;;;;;;;;;;25.70;47.50;;;;;;1551859;76;736;-69
2021/09/14 10:32:19;;;;;;;;;;;25.70;47.40;;;;;;1552140;75;1110;-67
2021/09/14 10:34:21;;;;;;;;;;;25.70;47.70;;;;;;1548876;75;736;-70
2021/09/14 10:36:23;;;;;;;;;;;25.60;47.30;;;;;;1551866;76;1095;-70
2021/09/14 10:38:25;;;;;;;;;;;25.50;46.80;;;;;;1540714;76;1938;-69
2021/09/14 10:40:28;;;;;;;;;;;25.50;46.60;;;;;;1550041;75;704;-69
2021/09/14 10:42:30;;;;;;;;;;;25.50;45.50;;;;;;1512438;77;1174;-71
2021/09/14 10:44:32;;;;;;;;;;;25.40;47.10;;;;;;1503119;76;1282;-70
2021/09/14 10:46:34;;;;;;;;;;;25.50;47.00;;;;;;1539483;76;1198;-70
2021/09/14 10:48:37;;;;;;;;;;;25.50;47.00;;;;;;1550932;75;811;-69
2021/09/14 10:50:39;;;;;;;;;;;25.60;46.90;;;;;;1552974;75;1696;-71
2021/09/14 10:52:43;;;;;;;;;;;25.70;46.60;;;;;;1553700;76;727;-71
2021/09/14 10:54:49;;;;;;;;;;;25.60;46.50;;;;;;1543965;76;673;-71
2021/09/14 10:56:52;;;;;;;;;;;25.50;46.60;;;;;;1551648;76;1939;-71
2021/09/14 10:58:55;;;;;;;;;;;25.60;46.50;;;;;;1548941;76;771;-70
2021/09/14 11:00:57;;;;;;;;;;;25.60;46.60;;;;;;1550995;75;721;-71
2021/09/14 11:02:59;;;;;;;;;;;25.60;46.50;;;;;;1538124;76;791;-71
2021/09/14 11:05:01;;;;;;;;;;;25.60;46.50;;;;;;1553809;76;716;-71
2021/09/14 11:07:05;;;;;;;;;;;25.70;46.60;;;;;;1544425;75;1130;-71
2021/09/14 11:09:07;;;;;;;;;;;25.60;46.30;;;;;;1555258;75;1073;-70
2021/09/14 11:11:08;;;;;;;;;;;25.60;46.60;;;;;;1552521;76;683;-71
2021/09/14 11:13:12;;;;;;;;;;;25.60;46.60;;;;;;1546358;75;550;-71
2021/09/14 11:15:14;;;;;;;;;;;25.60;46.60;;;;;;1537819;75;1609;-71
2021/09/14 11:17:23;;;;;;;;;;;25.70;46.60;;;;;;1533803;76;1942;-71
2021/09/14 11:19:25;;;;;;;;;;;25.60;46.70;;;;;;1541021;75;1053;-71
2021/09/14 11:21:27;;;;;;;;;;;25.60;46.80;;;;;;1540461;76;764;-71
2021/09/14 11:23:29;;;;;;;;;;;25.60;46.90;;;;;;1554383;76;763;-71
2021/09/14 11:25:31;;;;;;;;;;;25.60;46.80;;;;;;1552906;75;712;-70
2021/09/14 11:27:33;;;;;;;;;;;25.60;46.60;;;;;;1553084;75;1155;-71
2021/09/14 11:29:35;;;;;;;;;;;25.60;46.40;;;;;;1553317;75;775;-71
2021/09/14 11:31:38;;;;;;;;;;;25.50;44.50;;;;;;1553064;76;759;-67
2021/09/14 11:33:40;;;;;;;;;;;25.50;45.20;;;;;;1551786;76;712;-70
2021/09/14 11:35:42;;;;;;;;;;;25.50;45.80;;;;;;1548674;75;708;-71
2021/09/14 11:37:44;;;;;;;;;;;25.50;45.70;;;;;;1551296;76;1955;-71
2021/09/14 11:39:47;;;;;;;;;;;25.50;45.70;;;;;;1549231;76;601;-71
2021/09/14 11:41:49;;;;;;;;;;;25.50;45.90;;;;;;1549444;75;671;-70
2021/09/14 11:43:51;;;;;;;;;;;25.50;45.80;;;;;;1543198;76;1267;-71
2021/09/14 11:45:53;;;;;;;;;;;25.50;45.70;;;;;;1547412;75;720;-66
2021/09/14 11:47:55;;;;;;;;;;;25.50;45.50;;;;;;1553204;76;1126;-71
2021/09/14 11:49:57;;;;;;;;;;;25.40;44.80;;;;;;1547280;75;716;-70
2021/09/14 11:52:02;;;;;;;;;;;25.50;45.40;;;;;;1551803;75;759;-71
2021/09/14 11:54:04;;;;;;;;;;;25.50;45.40;;;;;;1546515;76;610;-70
2021/09/14 11:56:12;;;;;;;;;;;25.50;45.50;;;;;;1545203;76;783;-71
2021/09/14 11:58:15;;;;;;;;;;;25.50;45.50;;;;;;1551558;75;1951;-71
2021/09/14 12:00:17;;;;;;;;;;;25.50;44.90;;;;;;1546176;76;706;-70
2021/09/14 12:02:19;;;;;;;;;;;25.40;45.40;;;;;;1547752;75;696;-71
2021/09/14 12:04:21;;;;;;;;;;;25.30;44.90;;;;;;1549353;75;768;-71
2021/09/14 12:06:26;;;;;;;;;;;25.40;45.50;;;;;;1544708;76;1130;-69
2021/09/14 12:08:33;;;;;;;;;;;25.40;45.30;;;;;;1551161;76;701;-70
2021/09/14 12:10:36;;;;;;;;;;;25.50;45.40;;;;;;1550994;75;721;-70
2021/09/14 12:12:38;;;;;;;;;;;25.50;45.50;;;;;;1544867;75;1109;-70
2021/09/14 12:14:41;;;;;;;;;;;25.50;45.60;;;;;;1520864;76;1372;-71
2021/09/14 12:16:44;;;;;;;;;;;25.50;45.10;;;;;;1543721;76;1123;-71
2021/09/14 12:18:46;;;;;;;;;;;25.40;45.70;;;;;;1551862;75;1905;-71
2021/09/14 12:20:48;;;;;;;;;;;25.50;45.90;;;;;;1539212;76;814;-72
2021/09/14 12:22:50;;;;;;;;;;;25.50;45.80;;;;;;1548959;75;728;-72
2021/09/14 12:24:52;;;;;;;;;;;25.50;45.80;;;;;;1553758;75;677;-72
2021/09/14 12:26:58;;;;;;;;;;;25.50;46.10;;;;;;1554488;75;1161;-72
2021/09/14 12:28:59;;;;;;;;;;;25.40;46.10;;;;;;1553697;75;796;-72
2021/09/14 12:31:01;;;;;;;;;;;25.40;46.20;;;;;;1552513;76;734;-72
2021/09/14 12:33:03;;;;;;;;;;;25.50;46.20;;;;;;1547753;75;688;-71
2021/09/14 12:35:05;;;;;;;;;;;25.50;46.10;;;;;;1550667;75;675;-71
2021/09/14 12:37:07;;;;;;;;;;;25.50;46.40;;;;;;1547914;75;1171;-72
2021/09/14 12:39:10;;;;;;;;;;;25.40;46.50;;;;;;1543930;75;1943;-72
2021/09/14 12:41:14;;;;;;;;;;;25.50;46.60;;;;;;1557734;74;733;-71
2021/09/14 12:43:15;;;;;;;;;;;25.50;46.50;;;;;;1536718;76;920;-70
2021/09/14 12:45:17;;;;;;;;;;;25.50;46.40;;;;;;1529190;76;716;-71
2021/09/14 12:47:19;;;;;;;;;;;25.50;46.40;;;;;;1540580;76;1150;-71
2021/09/14 12:49:21;;;;;;;;;;;25.50;46.50;;;;;;1539766;76;732;-72
2021/09/14 12:51:23;;;;;;;;;;;25.60;46.40;;;;;;1540059;77;716;-71
2021/09/14 12:53:25;;;;;;;;;;;25.50;46.40;;;;;;1540450;76;796;-72
2021/09/14 12:55:26;;;;;;;;;;;25.60;45.80;;;;;;1539752;76;672;-72
2021/09/14 12:57:28;;;;;;;;;;;25.40;45.60;;;;;;1528413;77;1948;-72
2021/09/14 12:59:30;;;;;;;;;;;25.30;46.50;;;;;;1537331;77;695;-73
2021/09/14 13:01:32;;;;;;;;;;;25.40;46.60;;;;;;1561235;74;810;-72
2021/09/14 13:03:34;;;;;;;;;;;25.50;46.50;;;;;;1556623;74;725;-71
2021/09/14 13:05:36;;;;;;;;;;;25.40;45.00;;;;;;1545944;74;731;-71